sensor_id;sensor_type;location;lat;lon;timestamp;temperature;humidity
35920;DHT22;36160;53.370;-6.196;2023-03-14T00:02:25;4.30;99.90
35920;DHT22;36160;53.370;-6.196;2023-03-14T00:04:54;4.30;99.90
35920;DHT22;36160;53.370;-6.196;2023-03-14T00:07:20;4.20;99.90
35920;DHT22;36160;53.370;-6.196;2023-03-14T00:09:46;4.20;99.90
35920;DHT22;36160;53.370;-6.196;2023-03-14T00:12:12;4.20;99.90
35920;DHT22;36160;53.370;-6.196;2023-03-14T00:14:39;4.20;99.90
35920;DHT22;36160;53.370;-6.196;2023-03-14T00:17:08;4.10;99.90
35920;DHT22;36160;53.370;-6.196;2023-03-14T00:19:33;4.10;99.90
35920;DHT22;36160;53.370;-6.196;2023-03-14T00:21:59;4.10;99.90
35920;DHT22;36160;53.370;-6.196;2023-03-14T00:24:25;4.10;99.90
35920;DHT22;36160;53.370;-6.196;2023-03-14T00:26:50;4.10;99.90
35920;DHT22;36160;53.370;-6.196;2023-03-14T00:29:16;4.00;99.90
35920;DHT22;36160;53.370;-6.196;2023-03-14T00:31:42;4.00;99.90
35920;DHT22;36160;53.370;-6.196;2023-03-14T00:34:07;4.00;99.90
35920;DHT22;36160;53.370;-6.196;2023-03-14T00:36:33;4.00;99.90
35920;DHT22;36160;53.370;-6.196;2023-03-14T00:38:58;4.00;99.90
35920;DHT22;36160;53.370;-6.196;2023-03-14T00:41:24;4.00;99.90
35920;DHT22;36160;53.370;-6.196;2023-03-14T00:43:51;3.90;99.90
35920;DHT22;36160;53.370;-6.196;2023-03-14T00:46:17;4.00;99.90
35920;DHT22;36160;53.370;-6.196;2023-03-14T00:48:44;4.00;99.90
35920;DHT22;36160;53.370;-6.196;2023-03-14T00:51:11;4.00;99.90
35920;DHT22;36160;53.370;-6.196;2023-03-14T00:53:39;4.00;99.90
35920;DHT22;36160;53.370;-6.196;2023-03-14T00:56:08;4.10;99.90
35920;DHT22;36160;53.370;-6.196;2023-03-14T00:58:34;4.10;99.90
35920;DHT22;36160;53.370;-6.196;2023-03-14T01:01:06;4.20;99.90
35920;DHT22;36160;53.370;-6.196;2023-03-14T01:03:31;4.20;99.90
35920;DHT22;36160;53.370;-6.196;2023-03-14T01:06:10;4.20;99.90
35920;DHT22;36160;53.370;-6.196;2023-03-14T01:08:36;4.30;99.90
35920;DHT22;36160;53.370;-6.196;2023-03-14T01:11:08;4.20;99.90
35920;DHT22;36160;53.370;-6.196;2023-03-14T01:13:35;4.30;99.90
35920;DHT22;36160;53.370;-6.196;2023-03-14T01:16:03;4.30;99.90
35920;DHT22;36160;53.370;-6.196;2023-03-14T01:18:30;4.30;99.90
35920;DHT22;36160;53.370;-6.196;2023-03-14T01:20:56;4.40;99.90
35920;DHT22;36160;53.370;-6.196;2023-03-14T01:23:22;4.40;99.90
35920;DHT22;36160;53.370;-6.196;2023-03-14T01:25:47;4.50;99.90
35920;DHT22;36160;53.370;-6.196;2023-03-14T01:28:13;4.40;99.90
35920;DHT22;36160;53.370;-6.196;2023-03-14T01:30:39;4.40;99.90
35920;DHT22;36160;53.370;-6.196;2023-03-14T01:33:04;4.50;99.90
35920;DHT22;36160;53.370;-6.196;2023-03-14T01:35:30;4.40;99.90
35920;DHT22;36160;53.370;-6.196;2023-03-14T01:37:56;4.40;99.90
35920;DHT22;36160;53.370;-6.196;2023-03-14T01:40:21;4.40;99.90
35920;DHT22;36160;53.370;-6.196;2023-03-14T01:42:55;4.40;99.90
35920;DHT22;36160;53.370;-6.196;2023-03-14T01:48:44;4.20;99.90
35920;DHT22;36160;53.370;-6.196;2023-03-14T01:51:20;4.20;99.90
35920;DHT22;36160;53.370;-6.196;2023-03-14T01:53:48;4.00;99.90
35920;DHT22;36160;53.370;-6.196;2023-03-14T01:56:16;3.90;99.90
35920;DHT22;36160;53.370;-6.196;2023-03-14T01:58:46;3.90;99.90
35920;DHT22;36160;53.370;-6.196;2023-03-14T02:01:16;3.70;99.90
35920;DHT22;36160;53.370;-6.196;2023-03-14T02:03:59;3.60;99.90
35920;DHT22;36160;53.370;-6.196;2023-03-14T02:06:31;3.50;99.90
35920;DHT22;36160;53.370;-6.196;2023-03-14T02:09:00;3.40;99.90
35920;DHT22;36160;53.370;-6.196;2023-03-14T02:11:28;3.30;99.90
35920;DHT22;36160;53.370;-6.196;2023-03-14T02:13:56;3.20;99.90
35920;DHT22;36160;53.370;-6.196;2023-03-14T02:16:22;3.20;99.90
35920;DHT22;36160;53.370;-6.196;2023-03-14T02:18:47;3.10;99.90
35920;DHT22;36160;53.370;-6.196;2023-03-14T02:24:08;3.00;99.90
35920;DHT22;36160;53.370;-6.196;2023-03-14T02:29:29;2.90;99.90
35920;DHT22;36160;53.370;-6.196;2023-03-14T02:31:56;2.90;99.90
35920;DHT22;36160;53.370;-6.196;2023-03-14T02:34:21;3.00;99.90
35920;DHT22;36160;53.370;-6.196;2023-03-14T02:36:47;3.00;99.90
35920;DHT22;36160;53.370;-6.196;2023-03-14T02:39:21;3.00;99.90
35920;DHT22;36160;53.370;-6.196;2023-03-14T02:41:48;3.00;99.90
35920;DHT22;36160;53.370;-6.196;2023-03-14T02:44:14;3.10;99.90
35920;DHT22;36160;53.370;-6.196;2023-03-14T02:46:40;3.30;99.90
35920;DHT22;36160;53.370;-6.196;2023-03-14T02:49:12;3.20;99.90
35920;DHT22;36160;53.370;-6.196;2023-03-14T02:51:39;3.20;99.90
35920;DHT22;36160;53.370;-6.196;2023-03-14T02:54:05;3.20;99.90
35920;DHT22;36160;53.370;-6.196;2023-03-14T02:56:31;3.30;99.90
35920;DHT22;36160;53.370;-6.196;2023-03-14T02:58:56;3.30;99.90
35920;DHT22;36160;53.370;-6.196;2023-03-14T03:01:23;3.50;99.90
35920;DHT22;36160;53.370;-6.196;2023-03-14T03:03:49;3.60;99.90
35920;DHT22;36160;53.370;-6.196;2023-03-14T03:06:15;3.70;99.90
35920;DHT22;36160;53.370;-6.196;2023-03-14T03:08:41;3.70;99.90
35920;DHT22;36160;53.370;-6.196;2023-03-14T03:11:07;3.70;99.90
35920;DHT22;36160;53.370;-6.196;2023-03-14T03:13:32;3.70;99.90
35920;DHT22;36160;53.370;-6.196;2023-03-14T03:15:58;3.60;99.90
35920;DHT22;36160;53.370;-6.196;2023-03-14T03:18:24;3.60;99.90
35920;DHT22;36160;53.370;-6.196;2023-03-14T03:20:50;3.60;99.90
35920;DHT22;36160;53.370;-6.196;2023-03-14T03:23:15;3.60;99.90
35920;DHT22;36160;53.370;-6.196;2023-03-14T03:25:41;3.50;99.90
35920;DHT22;36160;53.370;-6.196;2023-03-14T03:28:07;3.60;99.90
35920;DHT22;36160;53.370;-6.196;2023-03-14T03:30:40;3.60;99.90
35920;DHT22;36160;53.370;-6.196;2023-03-14T03:33:07;3.60;99.90
35920;DHT22;36160;53.370;-6.196;2023-03-14T03:35:34;3.60;99.90
35920;DHT22;36160;53.370;-6.196;2023-03-14T03:37:59;3.60;99.90
35920;DHT22;36160;53.370;-6.196;2023-03-14T03:40:26;3.70;99.90
35920;DHT22;36160;53.370;-6.196;2023-03-14T03:42:51;3.60;99.90
35920;DHT22;36160;53.370;-6.196;2023-03-14T03:45:17;3.60;99.90
35920;DHT22;36160;53.370;-6.196;2023-03-14T03:47:42;3.60;99.90
35920;DHT22;36160;53.370;-6.196;2023-03-14T03:50:08;3.60;99.90
35920;DHT22;36160;53.370;-6.196;2023-03-14T03:52:34;3.60;99.90
35920;DHT22;36160;53.370;-6.196;2023-03-14T03:55:00;3.60;99.90
35920;DHT22;36160;53.370;-6.196;2023-03-14T03:57:25;3.60;99.90
35920;DHT22;36160;53.370;-6.196;2023-03-14T03:59:51;3.50;99.90
35920;DHT22;36160;53.370;-6.196;2023-03-14T04:02:17;3.50;99.90
35920;DHT22;36160;53.370;-6.196;2023-03-14T04:04:42;3.50;99.90
35920;DHT22;36160;53.370;-6.196;2023-03-14T04:07:08;3.50;99.90
35920;DHT22;36160;53.370;-6.196;2023-03-14T04:09:34;3.40;99.90
35920;DHT22;36160;53.370;-6.196;2023-03-14T04:12:00;3.30;99.90
35920;DHT22;36160;53.370;-6.196;2023-03-14T04:14:26;3.30;99.90
35920;DHT22;36160;53.370;-6.196;2023-03-14T04:16:51;3.20;99.90
35920;DHT22;36160;53.370;-6.196;2023-03-14T04:19:17;3.20;99.90
35920;DHT22;36160;53.370;-6.196;2023-03-14T04:21:43;3.20;99.90
35920;DHT22;36160;53.370;-6.196;2023-03-14T04:24:12;3.20;99.90
35920;DHT22;36160;53.370;-6.196;2023-03-14T04:26:38;3.20;99.90
35920;DHT22;36160;53.370;-6.196;2023-03-14T04:29:04;3.10;99.90
35920;DHT22;36160;53.370;-6.196;2023-03-14T04:31:29;3.10;99.90
35920;DHT22;36160;53.370;-6.196;2023-03-14T04:33:55;3.10;99.90
35920;DHT22;36160;53.370;-6.196;2023-03-14T04:36:21;3.00;99.90
35920;DHT22;36160;53.370;-6.196;2023-03-14T04:38:46;3.10;99.90
35920;DHT22;36160;53.370;-6.196;2023-03-14T04:41:12;3.00;99.90
35920;DHT22;36160;53.370;-6.196;2023-03-14T04:43:37;3.00;99.90
35920;DHT22;36160;53.370;-6.196;2023-03-14T04:46:03;3.10;99.90
35920;DHT22;36160;53.370;-6.196;2023-03-14T04:48:29;3.00;99.90
35920;DHT22;36160;53.370;-6.196;2023-03-14T04:50:55;3.00;99.90
35920;DHT22;36160;53.370;-6.196;2023-03-14T04:53:21;3.00;99.90
35920;DHT22;36160;53.370;-6.196;2023-03-14T04:55:55;3.00;99.90
35920;DHT22;36160;53.370;-6.196;2023-03-14T04:58:21;3.00;99.90
35920;DHT22;36160;53.370;-6.196;2023-03-14T05:00:48;2.90;99.90
35920;DHT22;36160;53.370;-6.196;2023-03-14T05:03:17;2.90;99.90
35920;DHT22;36160;53.370;-6.196;2023-03-14T05:05:44;2.90;99.90
35920;DHT22;36160;53.370;-6.196;2023-03-14T05:08:10;2.90;99.90
35920;DHT22;36160;53.370;-6.196;2023-03-14T05:10:35;2.90;99.90
35920;DHT22;36160;53.370;-6.196;2023-03-14T05:13:01;3.00;99.90
35920;DHT22;36160;53.370;-6.196;2023-03-14T05:15:27;2.90;99.90
35920;DHT22;36160;53.370;-6.196;2023-03-14T05:17:53;2.90;99.90
35920;DHT22;36160;53.370;-6.196;2023-03-14T05:20:20;2.90;99.90
35920;DHT22;36160;53.370;-6.196;2023-03-14T05:22:46;2.90;99.90
35920;DHT22;36160;53.370;-6.196;2023-03-14T05:25:12;2.90;99.90
35920;DHT22;36160;53.370;-6.196;2023-03-14T05:27:37;2.90;99.90
35920;DHT22;36160;53.370;-6.196;2023-03-14T05:30:04;2.80;99.90
35920;DHT22;36160;53.370;-6.196;2023-03-14T05:32:30;2.80;99.90
35920;DHT22;36160;53.370;-6.196;2023-03-14T05:34:56;2.80;99.90
35920;DHT22;36160;53.370;-6.196;2023-03-14T05:37:25;2.80;99.90
35920;DHT22;36160;53.370;-6.196;2023-03-14T05:39:50;2.80;99.90
35920;DHT22;36160;53.370;-6.196;2023-03-14T05:42:16;2.70;99.90
35920;DHT22;36160;53.370;-6.196;2023-03-14T05:44:42;2.70;99.90
35920;DHT22;36160;53.370;-6.196;2023-03-14T05:47:07;2.70;99.90
35920;DHT22;36160;53.370;-6.196;2023-03-14T05:49:33;2.60;99.90
35920;DHT22;36160;53.370;-6.196;2023-03-14T05:51:58;2.50;99.90
35920;DHT22;36160;53.370;-6.196;2023-03-14T05:54:24;2.50;99.90
35920;DHT22;36160;53.370;-6.196;2023-03-14T05:56:50;2.50;99.90
35920;DHT22;36160;53.370;-6.196;2023-03-14T05:59:15;2.40;99.90
35920;DHT22;36160;53.370;-6.196;2023-03-14T06:01:41;2.40;99.90
35920;DHT22;36160;53.370;-6.196;2023-03-14T06:04:07;2.40;99.90
35920;DHT22;36160;53.370;-6.196;2023-03-14T06:06:32;2.30;99.90
35920;DHT22;36160;53.370;-6.196;2023-03-14T06:08:58;2.20;99.90
35920;DHT22;36160;53.370;-6.196;2023-03-14T06:11:24;2.30;99.90
35920;DHT22;36160;53.370;-6.196;2023-03-14T06:13:50;2.30;99.90
35920;DHT22;36160;53.370;-6.196;2023-03-14T06:16:16;2.10;99.90
35920;DHT22;36160;53.370;-6.196;2023-03-14T06:18:42;2.20;99.90
35920;DHT22;36160;53.370;-6.196;2023-03-14T06:21:08;2.20;99.90
35920;DHT22;36160;53.370;-6.196;2023-03-14T06:23:34;2.10;99.90
35920;DHT22;36160;53.370;-6.196;2023-03-14T06:25:59;2.00;99.90
35920;DHT22;36160;53.370;-6.196;2023-03-14T06:28:26;2.00;99.90
35920;DHT22;36160;53.370;-6.196;2023-03-14T06:30:52;2.00;99.90
35920;DHT22;36160;53.370;-6.196;2023-03-14T06:33:17;2.00;99.90
35920;DHT22;36160;53.370;-6.196;2023-03-14T06:35:43;1.90;99.90
35920;DHT22;36160;53.370;-6.196;2023-03-14T06:38:09;1.90;99.90
35920;DHT22;36160;53.370;-6.196;2023-03-14T06:40:35;1.90;99.90
35920;DHT22;36160;53.370;-6.196;2023-03-14T06:43:00;1.90;99.90
35920;DHT22;36160;53.370;-6.196;2023-03-14T06:45:26;1.90;99.90
35920;DHT22;36160;53.370;-6.196;2023-03-14T06:47:51;1.90;99.90
35920;DHT22;36160;53.370;-6.196;2023-03-14T06:50:17;1.90;99.90
35920;DHT22;36160;53.370;-6.196;2023-03-14T06:52:43;1.90;99.90
35920;DHT22;36160;53.370;-6.196;2023-03-14T06:55:14;2.00;99.90
35920;DHT22;36160;53.370;-6.196;2023-03-14T06:57:40;1.90;99.90
35920;DHT22;36160;53.370;-6.196;2023-03-14T07:00:07;1.90;99.90
35920;DHT22;36160;53.370;-6.196;2023-03-14T07:02:33;1.90;99.90
35920;DHT22;36160;53.370;-6.196;2023-03-14T07:05:00;1.90;99.90
35920;DHT22;36160;53.370;-6.196;2023-03-14T07:07:26;2.00;99.90
35920;DHT22;36160;53.370;-6.196;2023-03-14T07:09:52;2.00;99.90
35920;DHT22;36160;53.370;-6.196;2023-03-14T07:12:18;2.00;99.90
35920;DHT22;36160;53.370;-6.196;2023-03-14T07:14:44;2.00;99.90
35920;DHT22;36160;53.370;-6.196;2023-03-14T07:17:10;2.00;99.90
35920;DHT22;36160;53.370;-6.196;2023-03-14T07:19:35;2.10;99.90
35920;DHT22;36160;53.370;-6.196;2023-03-14T07:22:01;2.10;99.90
35920;DHT22;36160;53.370;-6.196;2023-03-14T07:24:27;2.10;99.90
35920;DHT22;36160;53.370;-6.196;2023-03-14T07:26:52;2.10;99.90
35920;DHT22;36160;53.370;-6.196;2023-03-14T07:29:18;2.20;99.90
35920;DHT22;36160;53.370;-6.196;2023-03-14T07:31:44;2.20;99.90
35920;DHT22;36160;53.370;-6.196;2023-03-14T07:34:09;2.30;99.90
35920;DHT22;36160;53.370;-6.196;2023-03-14T07:36:35;2.30;99.90
35920;DHT22;36160;53.370;-6.196;2023-03-14T07:39:01;2.30;99.90
35920;DHT22;36160;53.370;-6.196;2023-03-14T07:41:26;2.30;99.90
35920;DHT22;36160;53.370;-6.196;2023-03-14T07:43:52;2.40;99.90
35920;DHT22;36160;53.370;-6.196;2023-03-14T07:46:18;2.40;99.90
35920;DHT22;36160;53.370;-6.196;2023-03-14T07:48:44;2.40;99.90
35920;DHT22;36160;53.370;-6.196;2023-03-14T07:51:09;2.50;99.90
35920;DHT22;36160;53.370;-6.196;2023-03-14T07:53:35;2.70;99.90
35920;DHT22;36160;53.370;-6.196;2023-03-14T07:56:02;2.70;99.90
35920;DHT22;36160;53.370;-6.196;2023-03-14T07:58:28;2.70;99.90
35920;DHT22;36160;53.370;-6.196;2023-03-14T08:00:53;2.80;99.90
35920;DHT22;36160;53.370;-6.196;2023-03-14T08:03:19;2.90;99.90
35920;DHT22;36160;53.370;-6.196;2023-03-14T08:05:48;3.00;99.90
35920;DHT22;36160;53.370;-6.196;2023-03-14T08:08:14;3.10;99.90
35920;DHT22;36160;53.370;-6.196;2023-03-14T08:10:40;3.30;99.90
35920;DHT22;36160;53.370;-6.196;2023-03-14T08:13:06;3.40;99.90
35920;DHT22;36160;53.370;-6.196;2023-03-14T08:15:31;3.50;99.90
35920;DHT22;36160;53.370;-6.196;2023-03-14T08:17:57;3.50;99.90
35920;DHT22;36160;53.370;-6.196;2023-03-14T08:20:26;3.40;99.90
35920;DHT22;36160;53.370;-6.196;2023-03-14T08:22:54;3.40;99.90
35920;DHT22;36160;53.370;-6.196;2023-03-14T08:25:20;3.30;99.90
35920;DHT22;36160;53.370;-6.196;2023-03-14T08:27:46;3.40;99.90
35920;DHT22;36160;53.370;-6.196;2023-03-14T08:30:14;3.50;99.90
35920;DHT22;36160;53.370;-6.196;2023-03-14T08:35:15;3.60;99.90
35920;DHT22;36160;53.370;-6.196;2023-03-14T08:37:41;3.60;99.90
35920;DHT22;36160;53.370;-6.196;2023-03-14T08:40:07;3.60;99.90
35920;DHT22;36160;53.370;-6.196;2023-03-14T08:42:36;3.60;99.90
35920;DHT22;36160;53.370;-6.196;2023-03-14T08:45:01;3.60;99.90
35920;DHT22;36160;53.370;-6.196;2023-03-14T08:47:27;3.50;99.90
35920;DHT22;36160;53.370;-6.196;2023-03-14T08:49:53;3.60;99.90
35920;DHT22;36160;53.370;-6.196;2023-03-14T08:52:19;3.60;99.90
35920;DHT22;36160;53.370;-6.196;2023-03-14T08:54:45;3.70;99.90
35920;DHT22;36160;53.370;-6.196;2023-03-14T08:57:10;3.80;99.90
35920;DHT22;36160;53.370;-6.196;2023-03-14T08:59:36;3.90;99.90
35920;DHT22;36160;53.370;-6.196;2023-03-14T09:02:02;3.90;99.90
35920;DHT22;36160;53.370;-6.196;2023-03-14T09:04:32;4.00;99.90
35920;DHT22;36160;53.370;-6.196;2023-03-14T09:06:59;4.00;99.90
35920;DHT22;36160;53.370;-6.196;2023-03-14T09:09:25;4.00;99.90
35920;DHT22;36160;53.370;-6.196;2023-03-14T09:11:55;4.00;99.90
35920;DHT22;36160;53.370;-6.196;2023-03-14T09:14:21;4.10;99.90
35920;DHT22;36160;53.370;-6.196;2023-03-14T09:16:47;4.20;99.90
35920;DHT22;36160;53.370;-6.196;2023-03-14T09:19:13;4.20;99.90
35920;DHT22;36160;53.370;-6.196;2023-03-14T09:21:39;4.30;99.90
35920;DHT22;36160;53.370;-6.196;2023-03-14T09:24:05;4.30;99.90
35920;DHT22;36160;53.370;-6.196;2023-03-14T09:26:31;4.40;99.90
35920;DHT22;36160;53.370;-6.196;2023-03-14T09:28:57;4.40;99.90
35920;DHT22;36160;53.370;-6.196;2023-03-14T09:31:22;4.60;99.90
35920;DHT22;36160;53.370;-6.196;2023-03-14T09:33:48;4.60;99.90
35920;DHT22;36160;53.370;-6.196;2023-03-14T09:36:14;4.70;99.90
35920;DHT22;36160;53.370;-6.196;2023-03-14T09:38:40;4.80;99.90
35920;DHT22;36160;53.370;-6.196;2023-03-14T09:41:27;4.80;99.90
35920;DHT22;36160;53.370;-6.196;2023-03-14T09:46:24;4.90;99.90
35920;DHT22;36160;53.370;-6.196;2023-03-14T09:48:51;5.00;99.90
35920;DHT22;36160;53.370;-6.196;2023-03-14T09:51:18;5.00;99.90
35920;DHT22;36160;53.370;-6.196;2023-03-14T09:53:48;5.10;99.90
35920;DHT22;36160;53.370;-6.196;2023-03-14T09:56:26;5.20;99.90
35920;DHT22;36160;53.370;-6.196;2023-03-14T09:58:55;5.30;99.90
35920;DHT22;36160;53.370;-6.196;2023-03-14T10:01:28;5.30;99.90
35920;DHT22;36160;53.370;-6.196;2023-03-14T10:03:56;5.30;99.90
35920;DHT22;36160;53.370;-6.196;2023-03-14T10:06:26;5.30;99.90
35920;DHT22;36160;53.370;-6.196;2023-03-14T10:08:53;5.40;99.90
35920;DHT22;36160;53.370;-6.196;2023-03-14T10:11:20;5.50;99.90
35920;DHT22;36160;53.370;-6.196;2023-03-14T10:14:07;5.50;97.70
35920;DHT22;36160;53.370;-6.196;2023-03-14T10:16:36;5.70;98.00
35920;DHT22;36160;53.370;-6.196;2023-03-14T10:19:06;5.80;99.90
35920;DHT22;36160;53.370;-6.196;2023-03-14T10:21:37;5.90;97.50
35920;DHT22;36160;53.370;-6.196;2023-03-14T10:26:55;6.00;60.20
35920;DHT22;36160;53.370;-6.196;2023-03-14T10:29:23;6.10;67.80
35920;DHT22;36160;53.370;-6.196;2023-03-14T10:32:16;6.10;49.70
35920;DHT22;36160;53.370;-6.196;2023-03-14T10:34:42;6.10;27.10
35920;DHT22;36160;53.370;-6.196;2023-03-14T10:37:21;6.30;40.80
35920;DHT22;36160;53.370;-6.196;2023-03-14T10:39:49;6.50;16.50
35920;DHT22;36160;53.370;-6.196;2023-03-14T10:42:26;6.60;32.00
35920;DHT22;36160;53.370;-6.196;2023-03-14T10:45:15;6.70;24.50
35920;DHT22;36160;53.370;-6.196;2023-03-14T10:47:49;6.70;1.00
35920;DHT22;36160;53.370;-6.196;2023-03-14T10:50:27;6.70;1.00
35920;DHT22;36160;53.370;-6.196;2023-03-14T10:52:55;6.80;99.90
35920;DHT22;36160;53.370;-6.196;2023-03-14T10:55:23;6.80;99.90
35920;DHT22;36160;53.370;-6.196;2023-03-14T10:57:48;6.80;99.90
35920;DHT22;36160;53.370;-6.196;2023-03-14T11:00:17;7.00;99.90
35920;DHT22;36160;53.370;-6.196;2023-03-14T11:03:09;7.10;99.90
35920;DHT22;36160;53.370;-6.196;2023-03-14T11:11:29;7.30;99.90
35920;DHT22;36160;53.370;-6.196;2023-03-14T11:16:55;7.40;99.90
35920;DHT22;36160;53.370;-6.196;2023-03-14T11:19:42;7.40;99.90
35920;DHT22;36160;53.370;-6.196;2023-03-14T11:30:34;7.80;99.90
35920;DHT22;36160;53.370;-6.196;2023-03-14T11:33:14;7.80;99.90
35920;DHT22;36160;53.370;-6.196;2023-03-14T11:41:01;8.10;98.40
35920;DHT22;36160;53.370;-6.196;2023-03-14T11:43:35;8.10;1.00
35920;DHT22;36160;53.370;-6.196;2023-03-14T11:46:28;8.10;1.00
35920;DHT22;36160;53.370;-6.196;2023-03-14T11:49:18;8.10;62.40
35920;DHT22;36160;53.370;-6.196;2023-03-14T11:51:55;8.10;99.90
35920;DHT22;36160;53.370;-6.196;2023-03-14T11:54:44;8.10;99.90
35920;DHT22;36160;53.370;-6.196;2023-03-14T11:57:20;8.10;99.90
35920;DHT22;36160;53.370;-6.196;2023-03-14T12:00:25;8.00;99.90
35920;DHT22;36160;53.370;-6.196;2023-03-14T12:02:57;7.90;1.00
35920;DHT22;36160;53.370;-6.196;2023-03-14T12:05:46;7.90;1.00
35920;DHT22;36160;53.370;-6.196;2023-03-14T12:08:42;8.00;1.00
35920;DHT22;36160;53.370;-6.196;2023-03-14T12:13:49;8.10;99.90
35920;DHT22;36160;53.370;-6.196;2023-03-14T12:16:36;8.20;96.30
35920;DHT22;36160;53.370;-6.196;2023-03-14T12:19:26;8.10;1.00
35920;DHT22;36160;53.370;-6.196;2023-03-14T12:24:27;7.80;99.90
35920;DHT22;36160;53.370;-6.196;2023-03-14T12:26:59;7.90;99.90
35920;DHT22;36160;53.370;-6.196;2023-03-14T12:29:25;8.00;99.90
35920;DHT22;36160;53.370;-6.196;2023-03-14T12:34:31;7.70;1.00
35920;DHT22;36160;53.370;-6.196;2023-03-14T12:37:10;7.90;99.90
35920;DHT22;36160;53.370;-6.196;2023-03-14T12:42:21;7.70;99.90
35920;DHT22;36160;53.370;-6.196;2023-03-14T12:44:49;7.30;1.00
35920;DHT22;36160;53.370;-6.196;2023-03-14T12:49:49;7.60;59.30
35920;DHT22;36160;53.370;-6.196;2023-03-14T12:52:20;8.00;59.40
35920;DHT22;36160;53.370;-6.196;2023-03-14T12:54:51;8.20;24.70
35920;DHT22;36160;53.370;-6.196;2023-03-14T12:57:28;8.10;99.90
35920;DHT22;36160;53.370;-6.196;2023-03-14T12:59:59;8.00;99.90
35920;DHT22;36160;53.370;-6.196;2023-03-14T13:05:09;7.90;99.90
35920;DHT22;36160;53.370;-6.196;2023-03-14T13:10:22;8.00;99.90
35920;DHT22;36160;53.370;-6.196;2023-03-14T13:15:44;8.10;99.90
35920;DHT22;36160;53.370;-6.196;2023-03-14T13:18:17;8.00;1.00
35920;DHT22;36160;53.370;-6.196;2023-03-14T13:20:52;7.80;1.00
35920;DHT22;36160;53.370;-6.196;2023-03-14T13:23:27;7.60;56.50
35920;DHT22;36160;53.370;-6.196;2023-03-14T13:25:54;7.40;84.80
35920;DHT22;36160;53.370;-6.196;2023-03-14T13:28:20;7.30;15.80
35920;DHT22;36160;53.370;-6.196;2023-03-14T13:30:48;7.10;99.90
35920;DHT22;36160;53.370;-6.196;2023-03-14T13:33:19;7.10;99.90
35920;DHT22;36160;53.370;-6.196;2023-03-14T13:36:05;6.90;99.90
35920;DHT22;36160;53.370;-6.196;2023-03-14T13:38:34;6.90;99.90
35920;DHT22;36160;53.370;-6.196;2023-03-14T13:41:04;7.00;99.90
35920;DHT22;36160;53.370;-6.196;2023-03-14T13:43:33;7.00;99.90
35920;DHT22;36160;53.370;-6.196;2023-03-14T13:46:22;7.00;99.90
35920;DHT22;36160;53.370;-6.196;2023-03-14T13:48:58;7.10;99.90
35920;DHT22;36160;53.370;-6.196;2023-03-14T13:51:26;7.20;99.90
35920;DHT22;36160;53.370;-6.196;2023-03-14T13:53:56;7.20;99.90
35920;DHT22;36160;53.370;-6.196;2023-03-14T13:56:28;7.40;99.90
35920;DHT22;36160;53.370;-6.196;2023-03-14T13:58:55;7.50;99.90
35920;DHT22;36160;53.370;-6.196;2023-03-14T14:01:35;7.70;99.90
35920;DHT22;36160;53.370;-6.196;2023-03-14T14:04:09;7.80;99.90
35920;DHT22;36160;53.370;-6.196;2023-03-14T14:06:45;7.90;94.80
35920;DHT22;36160;53.370;-6.196;2023-03-14T14:09:20;7.90;76.60
35920;DHT22;36160;53.370;-6.196;2023-03-14T14:14:21;8.10;3.30
35920;DHT22;36160;53.370;-6.196;2023-03-14T14:16:49;8.10;1.00
35920;DHT22;36160;53.370;-6.196;2023-03-14T14:19:16;8.00;11.50
35920;DHT22;36160;53.370;-6.196;2023-03-14T14:21:44;7.90;1.00
35920;DHT22;36160;53.370;-6.196;2023-03-14T14:24:14;7.90;1.00
35920;DHT22;36160;53.370;-6.196;2023-03-14T14:26:51;8.00;1.00
35920;DHT22;36160;53.370;-6.196;2023-03-14T14:32:00;8.20;99.90
35920;DHT22;36160;53.370;-6.196;2023-03-14T14:34:27;8.30;1.00
35920;DHT22;36160;53.370;-6.196;2023-03-14T14:36:52;8.20;99.90
35920;DHT22;36160;53.370;-6.196;2023-03-14T14:39:26;8.10;99.90
35920;DHT22;36160;53.370;-6.196;2023-03-14T14:41:54;8.10;1.00
35920;DHT22;36160;53.370;-6.196;2023-03-14T14:44:32;7.80;99.90
35920;DHT22;36160;53.370;-6.196;2023-03-14T14:46:58;7.70;1.00
35920;DHT22;36160;53.370;-6.196;2023-03-14T14:49:29;7.60;1.00
35920;DHT22;36160;53.370;-6.196;2023-03-14T14:52:15;7.60;47.10
35920;DHT22;36160;53.370;-6.196;2023-03-14T14:54:47;7.40;99.90
35920;DHT22;36160;53.370;-6.196;2023-03-14T14:57:22;6.90;69.70
35920;DHT22;36160;53.370;-6.196;2023-03-14T14:59:50;6.90;99.90
35920;DHT22;36160;53.370;-6.196;2023-03-14T15:02:33;6.90;99.90
35920;DHT22;36160;53.370;-6.196;2023-03-14T15:05:01;7.00;99.90
35920;DHT22;36160;53.370;-6.196;2023-03-14T15:07:26;6.80;99.90
35920;DHT22;36160;53.370;-6.196;2023-03-14T15:09:52;6.10;99.90
35920;DHT22;36160;53.370;-6.196;2023-03-14T15:12:17;5.80;99.90
35920;DHT22;36160;53.370;-6.196;2023-03-14T15:14:43;5.90;99.90
35920;DHT22;36160;53.370;-6.196;2023-03-14T15:17:10;5.70;99.90
35920;DHT22;36160;53.370;-6.196;2023-03-14T15:19:38;5.70;99.90
35920;DHT22;36160;53.370;-6.196;2023-03-14T15:22:07;5.60;99.90
35920;DHT22;36160;53.370;-6.196;2023-03-14T15:24:36;5.50;99.90
35920;DHT22;36160;53.370;-6.196;2023-03-14T15:27:03;5.30;99.90
35920;DHT22;36160;53.370;-6.196;2023-03-14T15:29:28;5.40;99.90
35920;DHT22;36160;53.370;-6.196;2023-03-14T15:31:54;5.50;99.90
35920;DHT22;36160;53.370;-6.196;2023-03-14T15:34:19;5.40;99.90
35920;DHT22;36160;53.370;-6.196;2023-03-14T15:36:45;5.50;99.90
35920;DHT22;36160;53.370;-6.196;2023-03-14T15:39:11;5.50;99.90
35920;DHT22;36160;53.370;-6.196;2023-03-14T15:41:37;5.50;99.90
35920;DHT22;36160;53.370;-6.196;2023-03-14T15:44:03;5.70;99.90
35920;DHT22;36160;53.370;-6.196;2023-03-14T15:46:29;5.80;99.90
35920;DHT22;36160;53.370;-6.196;2023-03-14T15:48:54;5.70;99.90
35920;DHT22;36160;53.370;-6.196;2023-03-14T15:51:20;5.60;99.90
35920;DHT22;36160;53.370;-6.196;2023-03-14T15:53:46;5.60;99.90
35920;DHT22;36160;53.370;-6.196;2023-03-14T15:56:15;5.70;99.90
35920;DHT22;36160;53.370;-6.196;2023-03-14T15:58:41;5.80;99.90
35920;DHT22;36160;53.370;-6.196;2023-03-14T16:01:08;5.80;99.90
35920;DHT22;36160;53.370;-6.196;2023-03-14T16:03:36;5.50;99.90
35920;DHT22;36160;53.370;-6.196;2023-03-14T16:06:03;5.50;99.90
35920;DHT22;36160;53.370;-6.196;2023-03-14T16:08:29;5.60;99.90
35920;DHT22;36160;53.370;-6.196;2023-03-14T16:10:56;5.70;99.90
35920;DHT22;36160;53.370;-6.196;2023-03-14T16:13:22;5.70;99.90
35920;DHT22;36160;53.370;-6.196;2023-03-14T16:16:02;5.70;99.90
35920;DHT22;36160;53.370;-6.196;2023-03-14T16:18:30;5.70;99.90
35920;DHT22;36160;53.370;-6.196;2023-03-14T16:20:58;5.80;99.90
35920;DHT22;36160;53.370;-6.196;2023-03-14T16:23:24;5.80;99.90
35920;DHT22;36160;53.370;-6.196;2023-03-14T16:25:51;5.80;99.90
35920;DHT22;36160;53.370;-6.196;2023-03-14T16:28:17;5.80;99.90
35920;DHT22;36160;53.370;-6.196;2023-03-14T16:30:42;5.90;99.90
35920;DHT22;36160;53.370;-6.196;2023-03-14T16:33:08;5.80;99.90
35920;DHT22;36160;53.370;-6.196;2023-03-14T16:35:37;5.90;99.90
35920;DHT22;36160;53.370;-6.196;2023-03-14T16:38:04;5.90;99.90
35920;DHT22;36160;53.370;-6.196;2023-03-14T16:40:30;5.90;99.90
35920;DHT22;36160;53.370;-6.196;2023-03-14T16:42:55;5.90;99.90
35920;DHT22;36160;53.370;-6.196;2023-03-14T16:45:21;5.90;99.90
35920;DHT22;36160;53.370;-6.196;2023-03-14T16:47:47;5.90;99.90